首页
METAR-TAF:

METAR-TAF

机场 :

布里斯托機場

布里斯托尔, 英格兰

纬度: 51-23N, 经度: 002-43W, 海拔: 189米

当前天气观测

该预报发布于38分钟前的08:50 UTC
风速12节,风向西转西南
温度 16°C
湿度 72%
气压 1004 hPa
能见度10公里或以上
少量云层高于1600英尺, 积雨云.
散云层高于1800英尺
附近有阵雨

METAR: EGGD 180850Z 24012KT 9999 VCSH FEW016CB SCT018 16/11 Q1004

时间: 10:28 (09:28 UTC)

预报

该预报发布于1小时和42分钟前的07:46 UTC
预报有效从18日的 07点(UTC)到 19日的 06点(UTC)
风速15节,风向西转西南
能见度10公里或以上
少量云层高于1200英尺
散云层高于3000英尺
短暂存在
从 18日的 07点(UTC)到 19日的 06点(UTC)
能見度: 7000
多云层高于1400英尺
阵雨
几率 40% :
短暂存在
从 18日的 07点(UTC)到 18日的 11点(UTC)
风速18节,风向西,有时为28节阵风
能見度: 3000
多云层高于900英尺, 积雨云.
大阵雨
短暂存在
从 18日的 11点(UTC)到 18日的 20点(UTC)
风速18节,风向西转西南,有时为28节阵风
几率 30% :
短暂存在
从 18日的 23点(UTC)到 19日的 06点(UTC)
能見度: 4000
多云层高于900英尺, 积雨云.
大阵雨

TAF: EGGD 180746Z 1807/1906 25015KT 9999 FEW012 SCT030 TEMPO 1807/1906 7000 SHRA BKN014 PROB40 TEMPO 1807/1811 26018G28KT 3000 +SHRA BKN009CB TEMPO 1811/1820 24018G28KT PROB30 TEMPO 1823/1906 4000 +SHRA BKN009CB

超过4000个机场的气象观测和天气预报(METAR&TAF报告)。

可查询的气象台以黄色和红色小点在地图上表示。

将鼠标移到小点上方,可查看气象台名称。

然后点击查看天气观测和预报。

如需切换地图:点击带黑十字的绿色按钮放大地图;点击带横线的绿色按钮缩小地图;或者点击绿色箭头查看邻近地区的地图。


METAR-TAF: